createdAt,value
2023-03-31T00:02:17.354Z,-4.40
2023-03-31T00:04:53.311Z,-4.50
2023-03-31T00:07:24.862Z,-4.60
2023-03-31T00:10:10.364Z,-4.70
2023-03-31T00:12:50.415Z,-4.80
2023-03-31T00:15:20.640Z,-5.00
2023-03-31T00:17:51.005Z,-5.00
2023-03-31T00:20:21.272Z,-5.00
2023-03-31T00:22:51.554Z,-5.10
2023-03-31T00:25:24.164Z,-5.10
2023-03-31T00:27:55.148Z,-5.10
2023-03-31T00:30:25.672Z,-5.10
2023-03-31T00:32:56.230Z,-5.00
2023-03-31T00:35:26.900Z,-4.90
2023-03-31T00:37:58.836Z,-4.90
2023-03-31T00:40:33.202Z,-4.90
2023-03-31T00:43:04.136Z,-4.90
2023-03-31T00:45:35.431Z,-5.00
2023-03-31T00:48:10.923Z,-5.20
2023-03-31T00:50:49.626Z,-5.20
2023-03-31T00:53:22.463Z,-5.20
2023-03-31T00:55:56.783Z,-5.30
2023-03-31T00:58:29.750Z,-5.40
2023-03-31T01:01:01.874Z,-5.40
2023-03-31T01:03:33.996Z,-5.30
2023-03-31T01:06:07.341Z,-5.30
2023-03-31T01:08:38.672Z,-5.20
2023-03-31T01:11:14.288Z,-5.10
2023-03-31T01:13:46.644Z,-5.10
2023-03-31T01:16:17.068Z,-5.10
2023-03-31T01:18:50.322Z,-5.20
2023-03-31T01:21:57.751Z,-5.20
2023-03-31T01:24:42.379Z,-5.20
2023-03-31T01:27:36.626Z,-5.20
2023-03-31T01:30:29.484Z,-5.20
2023-03-31T01:33:33.654Z,-5.20
2023-03-31T01:36:35.972Z,-5.10
2023-03-31T01:39:32.844Z,-4.90
2023-03-31T01:42:10.333Z,-4.70
2023-03-31T01:44:47.742Z,-4.50
2023-03-31T01:47:23.919Z,-4.50
2023-03-31T01:50:02.914Z,-4.30
2023-03-31T01:52:41.904Z,-4.00
2023-03-31T01:55:18.660Z,-3.60
2023-03-31T01:57:56.394Z,-3.30
2023-03-31T02:00:34.010Z,-3.20
2023-03-31T02:03:11.318Z,-3.10
2023-03-31T02:05:45.833Z,-3.10
2023-03-31T02:08:19.433Z,-3.20
2023-03-31T02:10:50.972Z,-3.20
2023-03-31T02:13:25.677Z,-3.10
2023-03-31T02:15:58.890Z,-3.00
2023-03-31T02:18:31.422Z,-3.00
2023-03-31T02:21:04.093Z,-3.00
2023-03-31T02:23:35.412Z,-3.00
2023-03-31T02:26:10.307Z,-3.00
2023-03-31T02:28:42.776Z,-3.00
2023-03-31T02:31:27.706Z,-3.00
2023-03-31T02:33:58.439Z,-2.80
2023-03-31T02:36:29.157Z,-2.70
2023-03-31T02:39:04.779Z,-2.50
2023-03-31T02:41:35.279Z,-2.40
2023-03-31T02:44:07.636Z,-2.30
2023-03-31T02:46:38.831Z,-2.20
2023-03-31T02:49:11.866Z,-2.10
2023-03-31T02:51:58.696Z,-2.10
2023-03-31T02:54:53.490Z,-2.00
2023-03-31T02:57:49.861Z,-2.00
2023-03-31T03:00:29.752Z,-1.90
2023-03-31T03:03:16.408Z,-1.90
2023-03-31T03:05:55.448Z,-1.90
2023-03-31T03:08:37.235Z,-1.80
2023-03-31T03:11:18.667Z,-1.80
2023-03-31T03:13:53.323Z,-1.80
2023-03-31T03:16:27.845Z,-1.80
2023-03-31T03:19:02.033Z,-1.80
2023-03-31T03:21:32.578Z,-1.90
2023-03-31T03:24:02.850Z,-1.80
2023-03-31T03:26:36.023Z,-1.90
2023-03-31T03:29:06.466Z,-1.80
2023-03-31T03:31:38.562Z,-1.90
2023-03-31T03:34:10.311Z,-1.80
2023-03-31T03:36:40.899Z,-1.80
2023-03-31T03:39:12.251Z,-1.90
2023-03-31T03:41:42.785Z,-1.90
2023-03-31T03:44:13.039Z,-2.00
2023-03-31T03:46:44.858Z,-1.90
2023-03-31T03:49:15.397Z,-1.90
2023-03-31T03:51:45.958Z,-1.90
2023-03-31T03:54:16.295Z,-1.90
2023-03-31T03:56:46.493Z,-2.00
2023-03-31T03:59:16.927Z,-2.00
2023-03-31T04:01:48.883Z,-2.00
2023-03-31T04:04:19.166Z,-2.00
2023-03-31T04:06:49.308Z,-2.00
2023-03-31T04:09:38.159Z,-2.10
2023-03-31T04:12:08.667Z,-2.10
2023-03-31T04:14:38.886Z,-2.10
2023-03-31T04:17:11.258Z,-2.10
2023-03-31T04:19:42.940Z,-2.20
2023-03-31T04:22:15.986Z,-2.20
2023-03-31T04:24:47.480Z,-2.20
2023-03-31T04:27:18.285Z,-2.20
2023-03-31T04:29:55.368Z,-2.20
2023-03-31T04:32:28.979Z,-2.30
2023-03-31T04:35:04.580Z,-2.40
2023-03-31T04:37:35.697Z,-2.40
2023-03-31T04:40:10.561Z,-2.40
2023-03-31T04:42:41.083Z,-2.40
2023-03-31T04:45:12.495Z,-2.40
2023-03-31T04:47:44.916Z,-2.40
2023-03-31T04:50:16.884Z,-2.40
2023-03-31T04:52:47.497Z,-2.40
2023-03-31T04:55:17.973Z,-2.40
2023-03-31T04:57:48.799Z,-2.40
2023-03-31T05:00:19.941Z,-2.40
2023-03-31T05:02:52.221Z,-2.50
2023-03-31T05:05:22.735Z,-2.60
2023-03-31T05:07:52.918Z,-2.60
2023-03-31T05:10:23.598Z,-2.70
2023-03-31T05:12:54.082Z,-2.80
2023-03-31T05:15:25.282Z,-2.90
2023-03-31T05:17:57.090Z,-2.90
2023-03-31T05:20:27.350Z,-3.00
2023-03-31T05:22:57.832Z,-3.10
2023-03-31T05:25:33.211Z,-3.10
2023-03-31T05:28:03.778Z,-3.10
2023-03-31T05:30:34.217Z,-3.10
2023-03-31T05:33:06.397Z,-3.20
2023-03-31T05:35:36.726Z,-3.20
2023-03-31T05:38:08.308Z,-3.20
2023-03-31T05:40:38.479Z,-3.20
2023-03-31T05:43:08.695Z,-3.20
2023-03-31T05:45:38.878Z,-3.20
2023-03-31T05:48:10.949Z,-3.20
2023-03-31T05:50:43.550Z,-3.30
2023-03-31T05:53:13.773Z,-3.30
2023-03-31T05:55:44.125Z,-3.30
2023-03-31T05:58:14.262Z,-3.40
2023-03-31T06:00:45.404Z,-3.40
2023-03-31T06:03:17.447Z,-3.40
2023-03-31T06:05:50.672Z,-3.50
2023-03-31T06:08:20.952Z,-3.50
2023-03-31T06:10:51.183Z,-3.50
2023-03-31T06:13:21.398Z,-3.50
2023-03-31T06:15:57.277Z,-3.60
2023-03-31T06:18:30.822Z,-3.70
2023-03-31T06:21:01.286Z,-3.70
2023-03-31T06:23:31.691Z,-3.70
2023-03-31T06:26:04.811Z,-3.70
2023-03-31T06:28:35.110Z,-3.80
2023-03-31T06:31:06.284Z,-3.80
2023-03-31T06:33:38.630Z,-3.80
2023-03-31T06:36:09.414Z,-3.80
2023-03-31T06:38:40.463Z,-3.80
2023-03-31T06:41:13.658Z,-3.90
2023-03-31T06:43:44.027Z,-4.00
2023-03-31T06:46:14.565Z,-4.10
2023-03-31T06:48:46.369Z,-4.00
2023-03-31T06:51:17.371Z,-4.00
2023-03-31T06:53:47.590Z,-4.00
2023-03-31T06:56:18.165Z,-4.00
2023-03-31T06:58:48.350Z,-4.00
2023-03-31T07:01:18.593Z,-4.10
2023-03-31T07:03:50.887Z,-4.10
2023-03-31T07:06:21.243Z,-4.10
2023-03-31T07:08:51.491Z,-4.30
2023-03-31T07:11:21.966Z,-4.50
2023-03-31T07:13:52.465Z,-4.60
2023-03-31T07:16:23.073Z,-4.60
2023-03-31T07:19:00.130Z,-4.70
2023-03-31T07:21:30.404Z,-4.90
2023-03-31T07:24:01.059Z,-5.20
2023-03-31T07:26:31.204Z,-5.30
2023-03-31T07:29:01.663Z,-5.50
2023-03-31T07:31:32.161Z,-5.70
2023-03-31T07:34:04.340Z,-5.80
2023-03-31T07:36:34.700Z,-5.90
2023-03-31T07:39:05.455Z,-6.10
2023-03-31T07:41:35.897Z,-6.20
2023-03-31T07:44:06.192Z,-6.30
2023-03-31T07:46:36.553Z,-6.50
2023-03-31T07:49:10.208Z,-6.70
2023-03-31T07:51:40.898Z,-6.80
2023-03-31T07:54:11.112Z,-6.90
2023-03-31T07:56:41.303Z,-7.00
2023-03-31T07:59:11.529Z,-7.00
2023-03-31T08:01:41.780Z,-7.00
2023-03-31T08:04:15.199Z,-6.80
2023-03-31T08:06:45.476Z,-6.90
2023-03-31T08:09:15.707Z,-7.00
2023-03-31T08:11:46.883Z,-6.90
2023-03-31T08:14:27.212Z,-6.80
2023-03-31T08:17:04.740Z,-6.80
2023-03-31T08:19:38.017Z,-6.80
2023-03-31T08:22:08.654Z,-6.80
2023-03-31T08:24:38.924Z,-6.60
2023-03-31T08:27:11.879Z,-6.40
2023-03-31T08:29:42.692Z,-6.10
2023-03-31T08:32:12.969Z,-5.90
2023-03-31T08:34:45.911Z,-5.50
2023-03-31T08:37:16.489Z,-5.30
2023-03-31T08:39:46.686Z,-5.20
2023-03-31T08:42:23.865Z,-5.20
2023-03-31T08:45:00.647Z,-5.20
2023-03-31T08:47:34.806Z,-5.20
2023-03-31T08:50:15.565Z,-5.10
2023-03-31T08:52:51.327Z,-5.10
2023-03-31T08:55:26.397Z,-5.20
2023-03-31T08:58:04.009Z,-5.30
2023-03-31T09:00:42.726Z,-5.20
2023-03-31T09:03:21.831Z,-5.20
2023-03-31T09:06:01.200Z,-5.10
2023-03-31T09:08:40.024Z,-5.20
2023-03-31T09:11:23.688Z,-5.10
2023-03-31T09:14:32.608Z,-5.10
2023-03-31T09:17:16.088Z,-5.10
2023-03-31T09:19:51.147Z,-5.20
2023-03-31T09:22:26.905Z,-5.20
2023-03-31T09:25:02.306Z,-5.20
2023-03-31T09:27:37.832Z,-5.20
2023-03-31T09:30:16.288Z,-5.10
2023-03-31T09:32:49.084Z,-5.10
2023-03-31T09:35:22.448Z,-5.10
2023-03-31T09:37:55.046Z,-5.10
2023-03-31T09:40:27.165Z,-5.10
2023-03-31T09:43:01.924Z,-5.10
2023-03-31T09:45:34.624Z,-5.10
2023-03-31T09:48:07.574Z,-5.20
2023-03-31T09:50:45.590Z,-5.20
2023-03-31T09:53:21.555Z,-5.20
2023-03-31T09:55:57.989Z,-5.20
2023-03-31T09:58:28.095Z,-5.30
2023-03-31T10:01:03.879Z,-5.40
2023-03-31T10:03:37.323Z,-5.60
2023-03-31T10:06:13.502Z,-5.70
2023-03-31T10:08:50.064Z,-5.90
2023-03-31T10:11:20.940Z,-6.00
2023-03-31T10:13:59.312Z,-6.10
2023-03-31T10:16:33.711Z,-6.10
2023-03-31T10:19:21.988Z,-6.10
2023-03-31T10:21:59.623Z,-6.20
2023-03-31T10:24:40.660Z,-6.20
2023-03-31T10:27:23.440Z,-6.30
2023-03-31T10:29:55.945Z,-6.40
2023-03-31T10:32:29.660Z,-6.50
2023-03-31T10:35:01.219Z,-6.60
2023-03-31T10:37:32.456Z,-6.80
2023-03-31T10:40:08.423Z,-6.80
2023-03-31T10:42:38.810Z,-6.90
2023-03-31T10:45:37.189Z,-7.00
2023-03-31T10:48:19.926Z,-6.90
2023-03-31T10:50:51.514Z,-6.70
2023-03-31T10:53:22.718Z,-6.40
2023-03-31T10:56:04.013Z,-6.10
2023-03-31T10:58:54.709Z,-6.00
2023-03-31T11:01:41.170Z,-5.80
2023-03-31T11:04:40.375Z,-5.90
2023-03-31T11:07:19.274Z,-5.80
2023-03-31T11:10:02.888Z,-5.80
2023-03-31T11:12:40.821Z,-5.90
2023-03-31T11:15:21.179Z,-6.00
2023-03-31T11:18:16.436Z,-6.00
2023-03-31T11:20:58.190Z,-6.10
2023-03-31T11:23:48.334Z,-6.20
2023-03-31T11:26:25.121Z,-6.20
2023-03-31T11:29:18.910Z,-6.10
2023-03-31T11:31:56.585Z,-6.10
2023-03-31T11:34:48.126Z,-6.00
2023-03-31T11:37:32.604Z,-5.90
2023-03-31T11:40:21.473Z,-5.80
2023-03-31T11:42:56.197Z,-5.80
2023-03-31T11:45:32.647Z,-5.70
2023-03-31T11:48:07.981Z,-5.70
2023-03-31T11:50:42.101Z,-5.60
2023-03-31T11:53:18.951Z,-5.50
2023-03-31T11:55:51.181Z,-5.40
2023-03-31T11:58:25.393Z,-5.20
2023-03-31T12:01:03.423Z,-5.00
2023-03-31T12:03:44.548Z,-4.90
2023-03-31T12:06:20.015Z,-4.90
2023-03-31T12:08:59.882Z,-4.80
2023-03-31T12:11:35.618Z,-4.70
2023-03-31T12:14:17.690Z,-4.60
2023-03-31T12:16:51.372Z,-4.40
2023-03-31T12:19:24.722Z,-4.10
2023-03-31T12:21:57.794Z,-3.70
2023-03-31T12:24:28.257Z,-3.40
2023-03-31T12:27:10.160Z,-3.10
2023-03-31T12:29:44.609Z,-2.90
2023-03-31T12:32:19.934Z,-2.70
2023-03-31T12:34:59.150Z,-2.60
2023-03-31T12:38:02.711Z,-2.60
2023-03-31T12:40:58.953Z,-2.60
2023-03-31T12:44:01.672Z,-2.60
2023-03-31T12:46:57.740Z,-2.60
2023-03-31T12:49:42.115Z,-2.60
2023-03-31T12:52:19.846Z,-2.40
2023-03-31T12:55:32.596Z,-2.30
2023-03-31T12:58:35.716Z,-2.20
2023-03-31T13:01:07.702Z,-2.10
2023-03-31T13:03:51.158Z,-2.00
2023-03-31T13:06:52.490Z,-1.80
2023-03-31T13:09:45.457Z,-1.60
2023-03-31T13:12:24.404Z,-1.30
2023-03-31T13:14:55.723Z,-0.90
2023-03-31T13:17:36.467Z,-0.50
2023-03-31T13:20:28.333Z,0.20
2023-03-31T13:23:06.676Z,0.70
2023-03-31T13:25:52.320Z,1.10
2023-03-31T13:28:42.819Z,1.40
2023-03-31T13:31:14.418Z,1.60
2023-03-31T13:33:58.261Z,1.80
2023-03-31T13:36:59.617Z,2.00
2023-03-31T13:39:56.918Z,2.10
2023-03-31T13:43:06.963Z,2.10
2023-03-31T13:45:53.171Z,2.10
2023-03-31T13:48:39.164Z,2.00
2023-03-31T13:51:41.346Z,2.20
2023-03-31T13:55:02.328Z,2.40
2023-03-31T13:58:29.438Z,2.80
2023-03-31T14:01:32.666Z,2.90
2023-03-31T14:04:25.007Z,3.20
2023-03-31T14:06:59.544Z,3.50
2023-03-31T14:09:34.363Z,3.70
2023-03-31T14:12:23.343Z,3.80
2023-03-31T14:14:56.656Z,3.90
2023-03-31T14:17:30.900Z,4.00
2023-03-31T14:20:22.016Z,3.90
2023-03-31T14:22:59.707Z,4.10
2023-03-31T14:25:41.601Z,4.30
2023-03-31T14:28:42.290Z,4.30
2023-03-31T14:31:22.206Z,4.50
2023-03-31T14:34:14.232Z,4.80
2023-03-31T14:36:51.619Z,4.70
2023-03-31T14:39:27.025Z,4.80
2023-03-31T14:42:02.121Z,4.80
2023-03-31T14:44:36.102Z,5.00
2023-03-31T14:47:07.964Z,5.00
2023-03-31T14:49:41.376Z,5.00
2023-03-31T14:52:18.211Z,5.20
2023-03-31T14:54:49.598Z,5.30
2023-03-31T14:57:22.794Z,5.50
2023-03-31T14:59:56.096Z,5.80
2023-03-31T15:02:34.048Z,5.60
2023-03-31T15:05:08.166Z,5.70
2023-03-31T15:07:38.737Z,6.00
2023-03-31T15:10:10.488Z,6.30
2023-03-31T15:12:40.687Z,6.30
2023-03-31T15:15:16.445Z,6.60
2023-03-31T15:17:49.801Z,6.90
2023-03-31T15:20:38.637Z,6.70
2023-03-31T15:23:25.206Z,6.60
2023-03-31T15:26:07.818Z,6.50
2023-03-31T15:28:47.851Z,6.50
2023-03-31T15:31:19.924Z,6.70
2023-03-31T15:33:50.497Z,6.90
2023-03-31T15:36:23.257Z,6.80
2023-03-31T15:38:59.636Z,6.90
2023-03-31T15:41:33.463Z,7.00
2023-03-31T15:44:09.245Z,7.10
2023-03-31T15:47:02.879Z,7.10
2023-03-31T15:49:33.690Z,6.80
2023-03-31T15:52:03.992Z,7.00
2023-03-31T15:54:40.358Z,7.40
2023-03-31T15:57:12.579Z,7.40
2023-03-31T15:59:55.759Z,7.40
2023-03-31T16:02:30.942Z,7.50
2023-03-31T16:05:02.997Z,7.50
2023-03-31T16:07:37.414Z,7.70
2023-03-31T16:10:11.586Z,7.50
2023-03-31T16:12:44.613Z,7.50
2023-03-31T16:15:18.514Z,7.50
2023-03-31T16:17:55.066Z,7.60
2023-03-31T16:20:28.650Z,7.20
2023-03-31T16:23:01.139Z,7.00
2023-03-31T16:25:33.856Z,6.90
2023-03-31T16:28:05.980Z,6.40
2023-03-31T16:30:40.959Z,6.70
2023-03-31T16:33:14.764Z,6.60
2023-03-31T16:35:49.496Z,6.90
2023-03-31T16:38:20.353Z,7.10
2023-03-31T16:40:52.348Z,7.30
2023-03-31T16:43:23.938Z,7.50
2023-03-31T16:45:55.465Z,7.50
2023-03-31T16:48:29.164Z,7.50
2023-03-31T16:51:00.991Z,7.20
2023-03-31T16:53:32.330Z,6.90
2023-03-31T16:56:02.644Z,6.70
2023-03-31T16:58:33.114Z,6.50
2023-03-31T17:01:03.917Z,6.60
2023-03-31T17:03:37.562Z,6.90
2023-03-31T17:06:10.675Z,6.80
2023-03-31T17:08:41.690Z,6.70
2023-03-31T17:11:14.916Z,6.50
2023-03-31T17:13:45.921Z,6.60
2023-03-31T17:16:22.030Z,6.40
2023-03-31T17:18:58.815Z,6.20
2023-03-31T17:21:30.236Z,6.00
2023-03-31T17:24:02.672Z,5.90
2023-03-31T17:26:33.559Z,5.90
2023-03-31T17:29:04.125Z,5.90
2023-03-31T17:31:34.402Z,5.80
2023-03-31T17:34:06.399Z,5.70
2023-03-31T17:36:36.592Z,5.40
2023-03-31T17:39:08.063Z,5.20
2023-03-31T17:41:38.457Z,5.20
2023-03-31T17:44:09.426Z,5.20
2023-03-31T17:46:39.581Z,5.30
2023-03-31T17:49:11.734Z,5.30
2023-03-31T17:51:44.724Z,5.10
2023-03-31T17:54:14.970Z,5.20
2023-03-31T17:56:45.946Z,5.20
2023-03-31T17:59:16.255Z,5.30
2023-03-31T18:01:47.540Z,5.50
2023-03-31T18:04:19.489Z,5.60
2023-03-31T18:06:50.969Z,5.70
2023-03-31T18:09:21.901Z,5.80
2023-03-31T18:11:52.229Z,5.80
2023-03-31T18:14:23.223Z,5.80
2023-03-31T18:16:53.631Z,5.70
2023-03-31T18:19:25.505Z,5.70
2023-03-31T18:21:55.835Z,5.70
2023-03-31T18:24:26.390Z,5.70
2023-03-31T18:26:57.493Z,5.70
2023-03-31T18:29:27.869Z,5.50
2023-03-31T18:31:58.477Z,5.20
2023-03-31T18:34:30.838Z,5.20
2023-03-31T18:37:00.992Z,5.20
2023-03-31T18:39:31.127Z,5.10
2023-03-31T18:42:01.631Z,5.00
2023-03-31T18:44:32.104Z,4.80
2023-03-31T18:47:02.374Z,4.70
2023-03-31T18:49:34.506Z,4.80
2023-03-31T18:52:05.055Z,4.90
2023-03-31T18:54:35.692Z,4.80
2023-03-31T18:57:06.922Z,4.90
2023-03-31T18:59:37.212Z,4.80
2023-03-31T19:02:07.720Z,4.80
2023-03-31T19:04:39.784Z,4.70
2023-03-31T19:07:09.968Z,4.70
2023-03-31T19:09:40.348Z,4.60
2023-03-31T19:12:11.659Z,4.50
2023-03-31T19:14:42.114Z,4.40
2023-03-31T19:17:12.289Z,4.30
2023-03-31T19:19:44.112Z,4.20
2023-03-31T19:22:14.232Z,4.00
2023-03-31T19:24:45.657Z,3.90
2023-03-31T19:27:16.162Z,3.70
2023-03-31T19:29:46.832Z,3.70
2023-03-31T19:32:17.541Z,3.40
2023-03-31T19:34:51.363Z,3.30
2023-03-31T19:37:22.189Z,3.40
2023-03-31T19:39:52.765Z,3.30
2023-03-31T19:42:22.917Z,3.20
2023-03-31T19:44:53.268Z,3.10
2023-03-31T19:47:23.493Z,3.00
2023-03-31T19:49:55.506Z,3.00
2023-03-31T19:52:25.853Z,2.90
2023-03-31T19:54:56.075Z,2.80
2023-03-31T19:57:26.436Z,2.60
2023-03-31T19:59:56.714Z,2.50
2023-03-31T20:02:27.199Z,2.30
2023-03-31T20:04:59.275Z,2.10
2023-03-31T20:07:29.949Z,2.00
2023-03-31T20:10:00.145Z,1.90
2023-03-31T20:12:30.731Z,1.80
2023-03-31T20:15:01.096Z,1.80
2023-03-31T20:17:31.554Z,1.80
2023-03-31T20:20:03.928Z,1.70
2023-03-31T20:22:34.052Z,1.60
2023-03-31T20:25:04.316Z,1.60
2023-03-31T20:27:34.467Z,1.60
2023-03-31T20:30:05.216Z,1.60
2023-03-31T20:32:35.452Z,1.50
2023-03-31T20:35:09.133Z,1.50
2023-03-31T20:37:39.633Z,1.40
2023-03-31T20:40:11.355Z,1.40
2023-03-31T20:42:41.601Z,1.30
2023-03-31T20:45:12.350Z,1.30
2023-03-31T20:47:42.845Z,1.30
2023-03-31T20:50:15.087Z,1.30
2023-03-31T20:52:46.549Z,1.30
2023-03-31T20:55:17.554Z,1.30
2023-03-31T20:57:47.813Z,1.30
2023-03-31T21:00:19.171Z,1.30
2023-03-31T21:02:49.397Z,1.30
2023-03-31T21:05:22.078Z,1.30
2023-03-31T21:07:52.304Z,1.30
2023-03-31T21:10:22.529Z,1.30
2023-03-31T21:12:53.334Z,1.40
2023-03-31T21:15:23.839Z,1.40
2023-03-31T21:17:54.514Z,1.30
2023-03-31T21:20:26.473Z,1.30
2023-03-31T21:22:57.810Z,1.20
2023-03-31T21:25:28.590Z,1.20
2023-03-31T21:27:58.775Z,1.10
2023-03-31T21:30:29.038Z,1.10
2023-03-31T21:32:59.262Z,1.00
2023-03-31T21:35:32.409Z,1.10
2023-03-31T21:38:03.542Z,1.10
2023-03-31T21:40:33.911Z,1.10
2023-03-31T21:43:04.182Z,1.00
2023-03-31T21:45:34.435Z,1.00
2023-03-31T21:48:04.637Z,1.00
2023-03-31T21:50:37.076Z,1.00
2023-03-31T21:53:09.018Z,0.90
2023-03-31T21:55:45.015Z,0.90
2023-03-31T21:58:15.203Z,0.90
2023-03-31T22:00:45.443Z,0.90
2023-03-31T22:03:26.607Z,0.90
2023-03-31T22:06:01.947Z,0.80
2023-03-31T22:08:33.169Z,0.90
2023-03-31T22:11:03.720Z,0.90
2023-03-31T22:13:33.916Z,0.80
2023-03-31T22:16:04.908Z,0.80
2023-03-31T22:18:35.136Z,0.70
2023-03-31T22:21:15.255Z,0.70
2023-03-31T22:23:45.418Z,0.70
2023-03-31T22:26:15.918Z,0.70
2023-03-31T22:28:46.083Z,0.70
2023-03-31T22:31:16.471Z,0.70
2023-03-31T22:33:47.880Z,0.70
2023-03-31T22:36:19.769Z,0.70
2023-03-31T22:38:49.962Z,0.70
2023-03-31T22:41:20.282Z,0.60
2023-03-31T22:43:50.520Z,0.70
2023-03-31T22:46:20.845Z,0.60
2023-03-31T22:48:51.628Z,0.60
2023-03-31T22:51:23.616Z,0.60
2023-03-31T22:53:54.154Z,0.70
2023-03-31T22:56:25.199Z,0.60
2023-03-31T22:58:58.194Z,0.60
2023-03-31T23:01:28.476Z,0.60
2023-03-31T23:03:58.701Z,0.60
2023-03-31T23:06:32.322Z,0.50
2023-03-31T23:09:03.298Z,0.50
2023-03-31T23:11:33.569Z,0.50
2023-03-31T23:14:04.976Z,0.50
2023-03-31T23:16:35.496Z,0.50
2023-03-31T23:19:05.908Z,0.50
2023-03-31T23:21:38.269Z,0.50
2023-03-31T23:24:09.013Z,0.50
2023-03-31T23:26:53.449Z,0.50
2023-03-31T23:29:23.885Z,0.40
2023-03-31T23:31:54.191Z,0.40
2023-03-31T23:34:24.463Z,0.40
2023-03-31T23:36:56.257Z,0.40
2023-03-31T23:39:26.480Z,0.30
2023-03-31T23:41:56.802Z,0.30
2023-03-31T23:44:26.966Z,0.30
2023-03-31T23:46:57.135Z,0.30
2023-03-31T23:49:28.018Z,0.30
2023-03-31T23:52:03.014Z,0.30
2023-03-31T23:54:33.400Z,0.30
2023-03-31T23:57:03.701Z,0.30
2023-03-31T23:59:33.868Z,0.30
